Time;durP1;ratioP1;P1;durP2;ratioP2;P2;SDS_P1;SDS_P2;PMS_P1;PMS_P2;Temp;Humidity;BMP_temperature;BMP_pressure;BME280_temperature;BME280_humidity;BME280_pressure;Samples;Min_cycle;Max_cycle;Signal;HPM_P1;HPM_P2
2023/12/04 00:00:16;;;;;;;2.55;1.92;;;;;;;8.22;61.30;101232.91;5027356;28;20429;-57
2023/12/04 00:02:41;;;;;;;2.30;2.10;;;;;;;8.21;61.44;101225.88;5024790;28;20033;-57
2023/12/04 00:05:07;;;;;;;2.50;2.22;;;;;;;8.21;61.31;101225.88;5027818;28;20867;-58
2023/12/04 00:07:33;;;;;;;2.05;1.85;;;;;;;8.21;61.39;101228.53;5025739;28;20037;-57
2023/12/04 00:09:58;;;;;;;3.58;2.60;;;;;;;8.22;61.35;101226.72;5027572;28;20044;-58
2023/12/04 00:12:23;;;;;;;2.60;2.30;;;;;;;8.22;61.38;101221.41;5028986;28;20534;-57
2023/12/04 00:14:49;;;;;;;2.78;2.00;;;;;;;8.21;61.34;101220.56;5024957;28;20399;-57
2023/12/04 00:17:14;;;;;;;2.97;2.00;;;;;;;8.22;61.30;101221.41;5028583;28;20037;-57
2023/12/04 00:19:39;;;;;;;2.88;2.03;;;;;;;8.21;61.24;101215.25;5030342;28;20120;-57
2023/12/04 00:22:05;;;;;;;2.58;2.38;;;;;;;8.21;61.40;101219.72;5030295;28;20069;-58
2023/12/04 00:24:30;;;;;;;2.35;2.05;;;;;;;8.21;61.38;101214.41;5045812;28;20053;-57
2023/12/04 00:26:55;;;;;;;2.40;2.08;;;;;;;8.20;61.26;101210.88;5028344;28;20037;-57
2023/12/04 00:29:21;;;;;;;3.00;2.30;;;;;;;8.20;61.22;101205.56;5028987;28;20044;-58
2023/12/04 00:31:46;;;;;;;2.95;2.17;;;;;;;8.20;61.34;101208.22;5027945;28;20091;-57
2023/12/04 00:34:12;;;;;;;1.98;1.70;;;;;;;8.21;61.35;101206.44;5030636;28;20056;-57
2023/12/04 00:36:37;;;;;;;2.78;2.25;;;;;;;8.20;61.23;101192.31;5030114;28;20051;-57
2023/12/04 00:39:03;;;;;;;3.28;2.58;;;;;;;8.20;61.29;101194.09;5026593;28;20029;-58
2023/12/04 00:41:29;;;;;;;2.85;2.10;;;;;;;8.20;61.23;101205.56;5024445;28;20475;-57
2023/12/04 00:43:54;;;;;;;2.72;2.00;;;;;;;8.19;61.32;101190.59;5027085;28;20091;-58
2023/12/04 00:46:20;;;;;;;3.20;2.45;;;;;;;8.19;61.26;101190.59;5026540;28;20116;-57
2023/12/04 00:48:46;;;;;;;3.05;2.22;;;;;;;8.20;61.30;101194.97;5026898;28;20104;-57
2023/12/04 00:51:11;;;;;;;2.55;2.00;;;;;;;8.20;61.29;101189.66;5027384;28;20029;-58
2023/12/04 00:53:37;;;;;;;3.05;2.50;;;;;;;8.20;61.31;101180.84;5028238;28;20036;-58
2023/12/04 00:56:02;;;;;;;2.65;2.22;;;;;;;8.20;61.31;101178.19;5024848;28;20052;-57
2023/12/04 00:58:28;;;;;;;2.58;2.08;;;;;;;8.20;61.38;101172.88;5029120;28;20025;-57
2023/12/04 01:00:53;;;;;;;2.33;2.08;;;;;;;8.20;61.34;101170.25;5023267;28;20048;-57
2023/12/04 01:03:18;;;;;;;2.50;2.05;;;;;;;8.19;61.36;101164.09;5028006;28;20029;-57
2023/12/04 01:05:44;;;;;;;2.30;2.10;;;;;;;8.19;61.38;101172.03;5025101;28;20079;-57
2023/12/04 01:08:09;;;;;;;2.65;2.15;;;;;;;8.19;61.36;101163.22;5026910;28;20179;-57
2023/12/04 01:10:35;;;;;;;3.20;2.35;;;;;;;8.18;61.13;101159.69;5023443;28;20033;-57
2023/12/04 01:13:00;;;;;;;3.03;2.05;;;;;;;8.18;61.33;101158.84;5025748;28;20025;-57
2023/12/04 01:15:25;;;;;;;2.53;1.90;;;;;;;8.18;61.34;101158.84;5026562;28;20029;-57
2023/12/04 01:17:51;;;;;;;2.03;1.80;;;;;;;8.19;61.32;101157.94;5029059;28;20045;-57
2023/12/04 01:20:16;;;;;;;2.42;1.95;;;;;;;8.18;61.26;101161.50;5026293;28;20032;-58
2023/12/04 01:22:42;;;;;;;2.85;2.10;;;;;;;8.19;61.40;101160.56;5029132;28;20037;-58
2023/12/04 01:25:08;;;;;;;2.17;1.80;;;;;;;8.19;61.34;101156.13;5026570;28;20391;-57
2023/12/04 01:27:35;;;;;;;2.08;1.90;;;;;;;8.18;61.34;101151.75;5028726;28;20033;-58
2023/12/04 01:30:01;;;;;;;2.65;2.15;;;;;;;8.17;61.34;101139.44;5026425;28;20631;-58
2023/12/04 01:32:26;;;;;;;2.58;2.10;;;;;;;8.17;61.38;101136.78;5027683;28;20036;-57
2023/12/04 01:34:52;;;;;;;2.63;2.25;;;;;;;8.17;61.46;101142.09;5029037;28;20079;-58
2023/12/04 01:37:17;;;;;;;2.13;1.92;;;;;;;8.17;61.50;101139.44;5024950;28;20037;-57
2023/12/04 01:39:42;;;;;;;2.33;1.80;;;;;;;8.18;61.25;101134.97;5028844;28;20029;-57
2023/12/04 01:42:08;;;;;;;2.70;2.13;;;;;;;8.18;61.34;101134.97;5022698;28;20380;-57
2023/12/04 01:44:33;;;;;;;3.95;2.38;;;;;;;8.18;61.36;101129.66;5028362;28;20033;-57
2023/12/04 01:46:58;;;;;;;2.72;2.00;;;;;;;8.17;61.35;101127.97;5024727;28;20120;-58
2023/12/04 01:49:24;;;;;;;2.60;1.98;;;;;;;8.17;61.33;101134.13;5027268;28;20123;-57
2023/12/04 01:51:49;;;;;;;4.53;2.47;;;;;;;8.17;61.32;101123.50;5029128;28;20037;-57
2023/12/04 01:54:16;;;;;;;2.40;1.98;;;;;;;8.16;61.35;101126.25;5026889;28;20092;-57
2023/12/04 01:56:42;;;;;;;2.17;1.90;;;;;;;8.15;61.33;101125.38;5027095;28;20041;-57
2023/12/04 01:59:08;;;;;;;2.28;2.03;;;;;;;8.16;61.32;101116.47;5025549;28;20037;-57
2023/12/04 02:01:36;;;;;;;2.75;2.05;;;;;;;8.16;61.34;101113.81;5027387;28;20040;-57
2023/12/04 02:04:02;;;;;;;3.00;2.28;;;;;;;8.15;61.36;101106.81;5022515;28;20472;-58
2023/12/04 02:06:28;;;;;;;3.78;2.03;;;;;;;8.16;61.35;101105.03;5024390;28;20091;-58
2023/12/04 02:08:53;;;;;;;2.80;2.08;;;;;;;8.17;61.27;101102.28;5025616;28;20071;-57
2023/12/04 02:11:18;;;;;;;2.28;1.88;;;;;;;8.17;61.40;101101.44;5026557;28;20052;-58
2023/12/04 02:13:44;;;;;;;2.22;2.03;;;;;;;8.17;61.35;101090.84;5025103;28;20025;-58
2023/12/04 02:16:12;;;;;;;2.88;1.98;;;;;;;8.16;61.41;101099.72;5025305;28;20034;-58
2023/12/04 02:18:37;;;;;;;2.83;2.30;;;;;;;8.16;61.51;101089.09;5028382;28;20030;-57
2023/12/04 02:21:03;;;;;;;3.03;2.60;;;;;;;8.14;61.31;101081.22;5022373;28;20034;-57
2023/12/04 02:23:29;;;;;;;2.53;1.77;;;;;;;8.14;61.53;101081.22;5027262;28;20033;-58
2023/12/04 02:25:59;;;;;;;2.42;2.03;;;;;;;8.14;61.49;101081.22;5028165;28;20041;-57
2023/12/04 02:28:30;;;;;;;2.40;2.20;;;;;;;8.14;61.38;101078.56;5025532;28;20079;-58
2023/12/04 02:30:59;;;;;;;2.28;2.08;;;;;;;8.14;61.30;101075.91;5025250;28;20022;-58
2023/12/04 02:33:26;;;;;;;3.30;2.45;;;;;;;8.15;61.44;101077.66;5024837;28;20036;-57
2023/12/04 02:35:53;;;;;;;2.20;2.00;;;;;;;8.14;61.49;101073.25;5024369;28;20122;-57
2023/12/04 02:38:19;;;;;;;2.65;2.10;;;;;;;8.15;61.59;101067.03;5021994;28;20045;-57
2023/12/04 02:40:45;;;;;;;2.70;2.00;;;;;;;8.14;61.45;101070.59;5019933;28;20041;-58
2023/12/04 02:43:10;;;;;;;2.08;1.83;;;;;;;8.14;61.42;101061.81;5023524;28;20116;-58
2023/12/04 02:45:35;;;;;;;3.10;2.22;;;;;;;8.14;61.42;101060.00;5026167;28;20044;-57
2023/12/04 02:48:01;;;;;;;2.88;2.10;;;;;;;8.13;61.45;101053.00;5024340;28;20037;-57
2023/12/04 02:50:26;;;;;;;2.17;1.98;;;;;;;8.14;61.53;101049.38;5025310;28;20074;-58
2023/12/04 02:52:52;;;;;;;2.05;1.85;;;;;;;8.13;61.48;101047.69;5027743;28;20040;-57
2023/12/04 02:55:17;;;;;;;2.78;2.42;;;;;;;8.14;61.37;101043.25;5024927;28;20103;-57
2023/12/04 02:57:42;;;;;;;2.65;2.25;;;;;;;8.13;61.36;101037.09;5031775;28;20407;-57
2023/12/04 03:00:09;;;;;;;3.13;1.80;;;;;;;8.14;61.42;101035.28;5026112;28;20044;-58
2023/12/04 03:02:34;;;;;;;2.25;1.90;;;;;;;8.13;61.42;101031.78;5022673;28;20040;-58
2023/12/04 03:05:00;;;;;;;2.08;1.55;;;;;;;8.13;61.32;101030.91;5027642;28;20050;-58
2023/12/04 03:07:26;;;;;;;2.25;1.80;;;;;;;8.12;61.48;101024.75;5024373;28;20030;-58
2023/12/04 03:09:51;;;;;;;1.83;1.73;;;;;;;8.13;61.55;101023.81;5031585;28;20116;-57
2023/12/04 03:12:17;;;;;;;2.13;1.92;;;;;;;8.13;61.45;101021.16;5025428;28;20132;-57
2023/12/04 03:14:42;;;;;;;1.80;1.67;;;;;;;8.13;61.43;101022.94;5028931;28;20036;-57
2023/12/04 03:17:07;;;;;;;2.47;1.95;;;;;;;8.13;61.47;101015.88;5031283;28;20049;-57
2023/12/04 03:19:33;;;;;;;2.38;1.70;;;;;;;8.13;61.46;101015.00;5029894;28;20030;-57
2023/12/04 03:22:00;;;;;;;2.38;2.17;;;;;;;8.12;61.47;101011.50;5031529;28;20043;-58
2023/12/04 03:24:25;;;;;;;2.38;2.00;;;;;;;8.13;61.42;101002.59;5025075;28;20037;-57
2023/12/04 03:26:50;;;;;;;2.10;1.90;;;;;;;8.12;61.37;100998.22;5026546;28;20041;-57
2023/12/04 03:29:16;;;;;;;2.45;2.22;;;;;;;8.13;61.47;100999.97;5029182;28;20120;-57
2023/12/04 03:31:41;;;;;;;1.90;1.70;;;;;;;8.13;61.46;100986.69;5029182;28;20041;-57
2023/12/04 03:34:06;;;;;;;2.10;1.90;;;;;;;8.12;61.51;100987.63;5027385;28;20029;-57
2023/12/04 03:36:32;;;;;;;2.10;1.85;;;;;;;8.12;61.49;100981.47;5028287;28;20093;-57
2023/12/04 03:38:57;;;;;;;2.05;1.70;;;;;;;8.12;61.58;100982.31;5032833;28;20048;-57
2023/12/04 03:41:23;;;;;;;2.08;1.75;;;;;;;8.11;61.42;100972.66;5023762;28;20022;-58
2023/12/04 03:43:48;;;;;;;2.28;1.67;;;;;;;8.11;61.57;100967.34;5031869;28;20114;-57
2023/12/04 03:46:13;;;;;;;2.00;1.58;;;;;;;8.12;61.52;100969.06;5027931;28;20809;-58
2023/12/04 03:48:39;;;;;;;1.90;1.67;;;;;;;8.12;61.59;100965.56;5027056;28;20543;-57
2023/12/04 03:51:05;;;;;;;2.75;2.00;;;;;;;8.11;61.52;100964.72;5028184;28;20092;-57
2023/12/04 03:53:30;;;;;;;2.30;2.00;;;;;;;8.11;61.41;100956.75;5027894;28;20029;-58
2023/12/04 03:55:58;;;;;;;2.28;1.80;;;;;;;8.12;61.49;100947.00;5030808;28;20034;-58
2023/12/04 03:58:23;;;;;;;1.60;1.50;;;;;;;8.10;61.58;100941.75;5024966;28;20486;-57
2023/12/04 04:00:49;;;;;;;2.22;2.00;;;;;;;8.12;61.76;100952.28;5030472;28;20033;-57
2023/12/04 04:03:15;;;;;;;1.90;1.55;;;;;;;8.11;61.64;100948.78;5023833;28;20116;-58
2023/12/04 04:05:40;;;;;;;2.50;2.00;;;;;;;8.11;61.56;100947.91;5028848;28;20447;-57
2023/12/04 04:08:07;;;;;;;2.20;1.98;;;;;;;8.11;61.57;100943.50;5027525;28;20056;-57
2023/12/04 04:10:33;;;;;;;2.05;1.85;;;;;;;8.10;61.69;100947.06;5028322;28;21198;-57
2023/12/04 04:12:58;;;;;;;1.95;1.67;;;;;;;8.11;61.70;100934.66;5027868;28;20120;-57
2023/12/04 04:15:23;;;;;;;2.08;1.83;;;;;;;8.10;61.71;100933.81;5030219;28;20049;-57
2023/12/04 04:17:49;;;;;;;2.78;1.70;;;;;;;8.11;61.67;100930.22;5030928;28;20057;-57
2023/12/04 04:20:15;;;;;;;1.75;1.60;;;;;;;8.10;61.68;100925.84;5030588;28;20152;-57
2023/12/04 04:22:40;;;;;;;1.83;1.65;;;;;;;8.10;61.75;100920.53;5024073;28;20057;-57
2023/12/04 04:25:09;;;;;;;1.80;1.60;;;;;;;8.10;61.71;100925.84;5028342;28;20033;-57
2023/12/04 04:27:35;;;;;;;2.22;1.80;;;;;;;8.11;61.72;100921.38;5027366;28;20037;-57
2023/12/04 04:30:01;;;;;;;1.80;1.65;;;;;;;8.10;61.67;100917.88;5027350;28;20041;-57
2023/12/04 04:32:27;;;;;;;1.67;1.58;;;;;;;8.10;61.76;100915.25;5030340;28;20396;-57
2023/12/04 04:34:52;;;;;;;2.20;1.83;;;;;;;8.10;61.75;100914.41;5029026;28;20037;-58
2023/12/04 04:37:19;;;;;;;2.67;1.80;;;;;;;8.09;61.80;100908.25;5030676;28;20029;-57
2023/12/04 04:39:44;;;;;;;2.28;1.60;;;;;;;8.11;61.80;100906.38;5027428;28;20029;-57
2023/12/04 04:42:09;;;;;;;1.50;1.40;;;;;;;8.08;61.83;100901.22;5027800;28;20399;-57
2023/12/04 04:44:35;;;;;;;2.78;2.25;;;;;;;8.10;61.88;100899.34;5026921;28;20784;-58
2023/12/04 04:47:00;;;;;;;2.05;1.80;;;;;;;8.09;61.93;100897.63;5028356;28;20087;-57
2023/12/04 04:49:25;;;;;;;2.45;2.15;;;;;;;8.09;61.97;100894.97;5029954;28;20075;-57
2023/12/04 04:51:51;;;;;;;2.03;1.80;;;;;;;8.10;61.95;100895.81;5022928;28;20042;-58
2023/12/04 04:54:16;;;;;;;1.83;1.70;;;;;;;8.09;61.83;100891.44;5026022;28;20047;-57
2023/12/04 04:56:41;;;;;;;1.92;1.60;;;;;;;8.09;62.04;100902.06;5026231;28;20071;-58
2023/12/04 04:59:07;;;;;;;2.00;1.80;;;;;;;8.09;62.29;100897.63;5028807;28;20022;-58
2023/12/04 05:01:32;;;;;;;2.50;2.10;;;;;;;8.09;62.00;100894.97;5024756;28;20406;-58
2023/12/04 05:03:57;;;;;;;1.80;1.63;;;;;;;8.09;62.05;100896.75;5024641;28;20060;-58
2023/12/04 05:06:23;;;;;;;2.33;2.10;;;;;;;8.08;61.93;100895.91;5028425;28;20095;-57
2023/12/04 05:08:52;;;;;;;2.53;1.90;;;;;;;8.09;61.85;100896.75;5028380;28;20037;-57
2023/12/04 05:11:17;;;;;;;1.95;1.60;;;;;;;8.08;61.87;100895.91;5026887;28;20090;-57
2023/12/04 05:13:44;;;;;;;2.05;1.77;;;;;;;8.09;61.82;100896.75;5026267;28;20104;-58
2023/12/04 05:16:10;;;;;;;1.90;1.70;;;;;;;8.08;61.96;100895.06;5024517;28;20364;-57
2023/12/04 05:18:35;;;;;;;2.17;1.67;;;;;;;8.08;61.90;100887.94;5029356;28;20155;-57
2023/12/04 05:21:01;;;;;;;2.28;1.92;;;;;;;8.08;62.03;100884.44;5024164;28;20098;-57
2023/12/04 05:23:26;;;;;;;2.63;2.05;;;;;;;8.08;61.97;100879.16;5028978;28;20030;-57
2023/12/04 05:25:51;;;;;;;1.70;1.60;;;;;;;8.08;61.95;100873.84;5026015;28;20041;-58
2023/12/04 05:28:17;;;;;;;1.73;1.58;;;;;;;8.09;61.93;100867.59;5027201;28;20394;-57
2023/12/04 05:30:43;;;;;;;2.58;2.03;;;;;;;8.08;62.09;100863.25;5028135;28;20568;-58
2023/12/04 05:33:08;;;;;;;1.80;1.60;;;;;;;8.08;62.05;100863.25;5026560;28;20026;-57
2023/12/04 05:35:34;;;;;;;2.47;1.83;;;;;;;8.07;62.01;100857.06;5026534;28;20033;-58
2023/12/04 05:38:00;;;;;;;2.60;1.70;;;;;;;8.07;62.05;100859.69;5025791;28;20102;-57
2023/12/04 05:40:25;;;;;;;1.88;1.77;;;;;;;8.07;62.12;100854.41;5026651;28;20044;-57
2023/12/04 05:42:51;;;;;;;2.13;1.73;;;;;;;8.07;62.06;100842.94;5024050;28;20443;-57
2023/12/04 05:45:16;;;;;;;1.85;1.67;;;;;;;8.06;61.82;100850.06;5026388;28;20646;-57
2023/12/04 05:47:41;;;;;;;2.33;1.70;;;;;;;8.07;62.05;100843.78;5025955;28;20033;-58
2023/12/04 05:50:07;;;;;;;1.70;1.60;;;;;;;8.06;62.10;100844.75;5020989;28;20029;-57
2023/12/04 05:52:33;;;;;;;2.28;1.65;;;;;;;8.07;62.05;100851.75;5024954;28;20399;-57
2023/12/04 05:54:58;;;;;;;2.15;1.70;;;;;;;8.06;62.04;100850.06;5025864;28;20037;-58
2023/12/04 05:57:23;;;;;;;2.40;1.80;;;;;;;8.07;62.05;100857.06;5027141;28;20040;-57
2023/12/04 05:59:49;;;;;;;1.83;1.55;;;;;;;8.07;62.10;100853.56;5025322;28;20813;-57
2023/12/04 06:02:15;;;;;;;1.70;1.60;;;;;;;8.07;62.06;100853.56;5026751;28;20543;-57
2023/12/04 06:04:40;;;;;;;2.00;1.80;;;;;;;8.06;62.07;100850.06;5024564;28;20044;-58
2023/12/04 06:07:06;;;;;;;1.98;1.77;;;;;;;8.06;62.03;100836.78;5026094;28;20129;-57
2023/12/04 06:09:32;;;;;;;2.20;1.85;;;;;;;8.07;62.12;100838.50;5024722;28;20132;-57
2023/12/04 06:11:57;;;;;;;1.80;1.50;;;;;;;8.07;62.08;100833.19;5025877;28;20163;-57
2023/12/04 06:14:23;;;;;;;1.73;1.63;;;;;;;8.06;62.14;100826.19;5026822;28;20049;-58
2023/12/04 06:16:48;;;;;;;2.20;1.70;;;;;;;8.06;62.17;100826.19;5021344;28;20037;-57
2023/12/04 06:19:14;;;;;;;2.10;1.90;;;;;;;8.06;62.07;100828.84;5041478;28;20567;-57
2023/12/04 06:21:40;;;;;;;1.98;1.58;;;;;;;8.06;62.14;100825.34;5028574;28;20033;-57
2023/12/04 06:24:08;;;;;;;1.83;1.70;;;;;;;8.05;62.11;100815.66;5026001;28;20410;-57
2023/12/04 06:26:36;;;;;;;2.15;1.80;;;;;;;8.04;62.16;100804.19;5029348;28;20449;-57
2023/12/04 06:29:01;;;;;;;2.13;1.90;;;;;;;8.05;62.20;100795.28;5030866;28;20029;-57
2023/12/04 06:31:27;;;;;;;2.22;2.03;;;;;;;8.05;62.14;100790.00;5032997;28;20044;-57
2023/12/04 06:33:53;;;;;;;1.80;1.70;;;;;;;8.06;62.22;100790.88;5034948;28;20032;-57
2023/12/04 06:36:18;;;;;;;2.50;2.25;;;;;;;8.06;62.27;100780.25;5029761;28;20052;-56
2023/12/04 06:38:47;;;;;;;2.05;1.63;;;;;;;8.05;62.28;100773.22;5031503;28;20033;-57
2023/12/04 06:41:13;;;;;;;2.03;1.45;;;;;;;8.05;62.26;100765.28;5034154;28;20437;-56
2023/12/04 06:43:39;;;;;;;1.80;1.70;;;;;;;8.05;62.27;100760.81;5050789;28;20045;-57
2023/12/04 06:46:05;;;;;;;1.63;1.50;;;;;;;8.05;62.27;100763.47;5032546;28;20441;-57
2023/12/04 06:48:31;;;;;;;1.60;1.50;;;;;;;8.04;62.42;100759.13;5032522;28;20041;-57
2023/12/04 06:50:56;;;;;;;1.58;1.48;;;;;;;8.05;62.29;100758.16;5030801;28;20033;-55
2023/12/04 06:53:21;;;;;;;2.67;2.13;;;;;;;8.05;62.35;100755.53;5032635;28;20036;-56
2023/12/04 06:55:47;;;;;;;2.67;1.75;;;;;;;8.05;62.29;100757.31;5033096;28;20124;-55
2023/12/04 06:58:13;;;;;;;1.50;1.40;;;;;;;8.05;62.43;100752.03;5031197;28;20056;-55
2023/12/04 07:00:39;;;;;;;1.52;1.42;;;;;;;8.05;62.34;100765.28;5032287;28;20049;-55
2023/12/04 07:03:05;;;;;;;1.73;1.63;;;;;;;8.05;62.36;100767.94;5031644;28;20445;-55
2023/12/04 07:05:30;;;;;;;1.70;1.55;;;;;;;8.05;62.37;100763.47;5032302;28;20392;-56
2023/12/04 07:07:55;;;;;;;1.83;1.60;;;;;;;8.03;62.35;100766.22;5029276;28;20044;-56
2023/12/04 07:10:21;;;;;;;1.70;1.50;;;;;;;8.04;62.50;100769.72;5031931;28;20120;-56
2023/12/04 07:12:46;;;;;;;2.65;2.00;;;;;;;8.03;62.50;100763.59;5036573;28;20383;-57
2023/12/04 07:15:12;;;;;;;1.70;1.60;;;;;;;8.04;62.44;100756.47;5033152;28;20535;-56
2023/12/04 07:17:39;;;;;;;2.22;1.80;;;;;;;8.04;62.42;100751.16;5032270;28;20029;-56
2023/12/04 07:20:08;;;;;;;1.98;1.55;;;;;;;8.03;62.77;100755.63;5033198;28;20052;-56
2023/12/04 07:22:33;;;;;;;2.45;1.60;;;;;;;8.04;62.66;100751.16;5031953;28;20040;-57
2023/12/04 07:24:59;;;;;;;1.88;1.60;;;;;;;8.03;62.66;100760.06;5038602;28;20034;-57
2023/12/04 07:27:25;;;;;;;2.60;1.98;;;;;;;8.03;62.80;100760.94;5029750;28;20025;-56
2023/12/04 07:29:50;;;;;;;2.60;1.90;;;;;;;8.04;62.49;100756.47;5036594;28;20041;-57
2023/12/04 07:32:17;;;;;;;3.22;1.90;;;;;;;8.03;62.62;100760.06;5033309;28;20030;-56
2023/12/04 07:34:43;;;;;;;3.20;2.03;;;;;;;8.04;62.60;100756.47;5031864;28;20053;-56
2023/12/04 07:37:08;;;;;;;2.45;1.92;;;;;;;8.04;62.57;100753.81;5033498;28;20391;-56
2023/12/04 07:39:34;;;;;;;3.13;2.40;;;;;;;8.04;62.61;100745.88;5035857;28;20021;-56
2023/12/04 07:41:59;;;;;;;2.33;2.10;;;;;;;8.04;62.60;100756.47;5030874;28;20468;-56
2023/12/04 07:44:24;;;;;;;4.85;3.00;;;;;;;8.02;62.55;100764.50;5025979;28;20029;-56
2023/12/04 07:46:50;;;;;;;2.58;2.38;;;;;;;8.03;62.53;100766.22;5028038;28;20030;-56
2023/12/04 07:49:15;;;;;;;3.55;2.42;;;;;;;8.03;62.57;100760.06;5032459;28;20060;-56
2023/12/04 07:51:40;;;;;;;2.22;1.98;;;;;;;8.04;62.60;100759.13;5031233;28;20033;-56
2023/12/04 07:54:06;;;;;;;3.33;1.85;;;;;;;8.02;62.59;100748.59;5031920;28;20049;-56
2023/12/04 07:56:31;;;;;;;3.15;2.33;;;;;;;8.03;62.60;100754.75;5032797;28;20044;-57
2023/12/04 07:58:57;;;;;;;3.03;2.15;;;;;;;8.03;62.70;100746.78;5030300;28;20072;-56
2023/12/04 08:01:24;;;;;;;3.42;2.50;;;;;;;8.02;62.55;100745.94;5032521;28;20057;-56
2023/12/04 08:03:49;;;;;;;2.97;2.38;;;;;;;8.02;62.59;100742.44;5024613;28;20044;-56
2023/12/04 08:06:16;;;;;;;2.92;2.47;;;;;;;8.03;62.51;100742.38;5028028;28;20050;-56
2023/12/04 08:08:41;;;;;;;2.35;2.13;;;;;;;8.03;62.53;100728.25;5030014;28;20037;-55
2023/12/04 08:11:10;;;;;;;3.13;2.20;;;;;;;8.03;62.37;100733.53;5034626;28;20125;-56
2023/12/04 08:13:35;;;;;;;3.25;2.40;;;;;;;8.03;62.54;100725.59;5027071;28;20108;-56
2023/12/04 08:16:01;;;;;;;3.15;2.33;;;;;;;8.01;62.44;100723.03;5031547;28;20108;-56
2023/12/04 08:18:26;;;;;;;2.50;2.30;;;;;;;8.03;62.62;100728.25;5026501;28;20032;-55
2023/12/04 08:20:52;;;;;;;2.70;2.17;;;;;;;8.02;62.63;100722.09;5024140;28;20497;-55
2023/12/04 08:23:17;;;;;;;2.67;2.20;;;;;;;8.02;62.28;100714.13;5025588;28;20045;-55
2023/12/04 08:25:43;;;;;;;3.38;1.92;;;;;;;8.02;62.46;100726.53;5029432;28;20033;-55
2023/12/04 08:28:08;;;;;;;3.30;2.30;;;;;;;8.02;62.44;100718.59;5029634;28;20037;-55
2023/12/04 08:30:34;;;;;;;4.13;2.10;;;;;;;8.03;62.46;100709.69;5031880;28;20025;-55
2023/12/04 08:32:59;;;;;;;2.65;2.10;;;;;;;8.02;62.41;100705.31;5032894;28;20056;-55
2023/12/04 08:35:25;;;;;;;3.30;2.08;;;;;;;8.02;62.50;100705.31;5032766;28;20479;-55
2023/12/04 08:37:50;;;;;;;2.28;1.95;;;;;;;8.02;62.47;100700.88;5026104;28;20069;-55
2023/12/04 08:40:16;;;;;;;3.95;2.38;;;;;;;8.03;62.59;100696.41;5031914;28;20041;-55
2023/12/04 08:42:41;;;;;;;2.47;1.98;;;;;;;8.01;62.43;100696.53;5030024;28;20031;-55
2023/12/04 08:45:08;;;;;;;3.80;2.30;;;;;;;8.02;62.33;100692.91;5031606;28;20037;-55
2023/12/04 08:47:34;;;;;;;2.55;2.22;;;;;;;8.02;62.53;100686.78;5029647;28;20387;-55
2023/12/04 08:50:00;;;;;;;2.80;2.20;;;;;;;8.01;62.50;100671.78;5030464;28;20031;-55
2023/12/04 08:52:25;;;;;;;2.05;1.88;;;;;;;8.00;62.58;100667.44;5026680;28;20525;-55
2023/12/04 08:54:50;;;;;;;2.35;1.98;;;;;;;8.02;62.50;100676.16;5032705;28;20060;-56
2023/12/04 08:57:16;;;;;;;2.10;1.80;;;;;;;8.02;62.59;100670.88;5025863;28;20029;-55
2023/12/04 08:59:41;;;;;;;2.47;2.25;;;;;;;8.01;62.46;100666.47;5031447;28;20064;-55
2023/12/04 09:02:07;;;;;;;2.38;1.92;;;;;;;8.02;62.56;100662.91;5028804;28;20037;-55
2023/12/04 09:04:32;;;;;;;2.30;2.10;;;;;;;8.01;62.45;100650.56;5031363;28;20451;-55
2023/12/04 09:06:58;;;;;;;2.08;1.85;;;;;;;8.01;62.48;100655.88;5030028;28;20049;-55
2023/12/04 09:09:24;;;;;;;2.42;2.22;;;;;;;8.00;62.46;100655.03;5030527;28;20036;-56
2023/12/04 09:11:49;;;;;;;1.75;1.60;;;;;;;8.01;62.50;100654.09;5030778;28;20025;-56
2023/12/04 09:14:15;;;;;;;1.77;1.58;;;;;;;8.02;62.43;100654.97;5023933;28;20092;-56
2023/12/04 09:16:41;;;;;;;1.75;1.63;;;;;;;8.00;62.46;100659.50;5028586;28;20041;-55
2023/12/04 09:19:06;;;;;;;2.40;2.00;;;;;;;8.02;62.32;100652.31;5026422;28;20038;-55
2023/12/04 09:21:32;;;;;;;2.60;1.80;;;;;;;8.02;62.41;100660.25;5028525;28;20057;-55
2023/12/04 09:23:57;;;;;;;2.72;1.83;;;;;;;8.01;62.40;100650.56;5031979;28;20036;-55
2023/12/04 09:26:23;;;;;;;3.60;2.25;;;;;;;8.01;62.52;100655.88;5024984;28;20479;-55
2023/12/04 09:28:48;;;;;;;2.80;1.83;;;;;;;8.01;62.44;100646.16;5027048;28;20051;-55
2023/12/04 09:31:14;;;;;;;1.88;1.60;;;;;;;8.01;62.45;100654.09;5029294;28;20041;-55
2023/12/04 09:33:39;;;;;;;2.53;1.77;;;;;;;8.01;62.48;100651.47;5027049;28;20036;-55
2023/12/04 09:36:05;;;;;;;2.53;2.13;;;;;;;8.01;62.36;100651.47;5026077;28;20076;-55
2023/12/04 09:38:30;;;;;;;3.05;1.95;;;;;;;8.00;62.29;100648.88;5027506;28;20491;-55
2023/12/04 09:40:59;;;;;;;1.70;1.60;;;;;;;8.01;62.47;100653.22;5028361;28;20029;-55
2023/12/04 09:43:25;;;;;;;2.88;1.90;;;;;;;8.01;62.44;100650.56;5031236;28;20499;-55
2023/12/04 09:45:51;;;;;;;2.78;1.58;;;;;;;8.00;62.49;100647.09;5031071;28;20053;-58
2023/12/04 09:48:17;;;;;;;2.05;1.77;;;;;;;8.01;62.48;100653.22;5030717;28;20050;-55
2023/12/04 09:50:43;;;;;;;2.38;1.90;;;;;;;8.02;62.40;100654.97;5026789;28;20026;-55
2023/12/04 09:53:11;;;;;;;2.67;1.63;;;;;;;8.01;62.47;100651.47;5030505;28;20030;-55
2023/12/04 09:55:36;;;;;;;2.28;1.63;;;;;;;8.00;62.56;100649.72;5027644;28;21032;-55
2023/12/04 09:58:03;;;;;;;1.90;1.45;;;;;;;8.02;62.54;100641.69;5028311;28;20104;-55
2023/12/04 10:00:31;;;;;;;2.28;1.73;;;;;;;8.00;62.50;100641.78;5029199;28;20218;-55
2023/12/04 10:02:57;;;;;;;2.40;1.92;;;;;;;8.02;62.63;100647.00;5029330;28;20387;-57
2023/12/04 10:05:23;;;;;;;2.28;1.67;;;;;;;8.02;62.54;100647.00;5026633;28;20053;-55
2023/12/04 10:07:49;;;;;;;1.95;1.58;;;;;;;8.02;62.52;100641.69;5028195;28;20037;-55
2023/12/04 10:10:14;;;;;;;1.90;1.65;;;;;;;8.02;62.41;100636.41;5026294;28;20045;-55
2023/12/04 10:12:39;;;;;;;1.67;1.42;;;;;;;8.01;62.47;100627.59;5028633;28;20048;-55
2023/12/04 10:15:10;;;;;;;2.08;1.85;;;;;;;8.01;62.51;100624.94;5029849;28;20396;-55
2023/12/04 10:17:37;;;;;;;2.30;1.77;;;;;;;8.01;62.56;100618.75;5030166;28;20025;-55
2023/12/04 10:20:12;;;;;;;1.92;1.60;;;;;;;8.01;62.55;100621.41;5025072;28;20033;-55
2023/12/04 10:22:40;;;;;;;3.05;1.90;;;;;;;8.01;62.54;100622.28;5025044;28;20164;-55
2023/12/04 10:25:15;;;;;;;2.75;2.15;;;;;;;8.02;62.53;100613.38;5029548;28;20037;-55
2023/12/04 10:27:41;;;;;;;2.58;1.90;;;;;;;8.01;62.56;100609.03;5027348;28;20042;-55
2023/12/04 10:30:07;;;;;;;2.83;1.65;;;;;;;8.01;62.53;100605.50;5026831;28;20056;-55
2023/12/04 10:32:36;;;;;;;1.77;1.63;;;;;;;8.01;62.56;100600.19;5028247;28;20352;-55
2023/12/04 10:35:02;;;;;;;2.20;1.75;;;;;;;8.02;62.61;100591.31;5029325;28;20033;-55
2023/12/04 10:37:30;;;;;;;1.98;1.77;;;;;;;8.01;62.53;100577.22;5027518;28;20041;-56
2023/12/04 10:39:55;;;;;;;1.70;1.60;;;;;;;8.02;62.55;100578.06;5026255;28;20060;-55
2023/12/04 10:42:25;;;;;;;2.78;1.40;;;;;;;8.02;62.51;100570.97;5027647;28;20049;-55
2023/12/04 10:44:52;;;;;;;2.35;1.88;;;;;;;8.02;62.54;100567.47;5026095;28;20025;-55
2023/12/04 10:47:21;;;;;;;1.65;1.42;;;;;;;8.02;62.61;100568.31;5026270;28;20464;-55
2023/12/04 10:49:51;;;;;;;2.47;1.77;;;;;;;8.04;62.59;100557.63;5027081;28;20026;-55
2023/12/04 10:52:21;;;;;;;1.58;1.48;;;;;;;8.03;62.58;100555.91;5029640;28;20037;-55
2023/12/04 10:54:47;;;;;;;1.65;1.52;;;;;;;8.03;62.58;100548.81;5027717;28;20056;-56
2023/12/04 10:57:22;;;;;;;1.73;1.50;;;;;;;8.02;62.54;100544.44;5029325;28;20044;-55
2023/12/04 10:59:51;;;;;;;1.75;1.60;;;;;;;8.02;62.63;100544.44;5023955;28;20022;-56
2023/12/04 11:02:21;;;;;;;1.45;1.35;;;;;;;8.03;62.67;100540.00;5025577;28;20040;-55
2023/12/04 11:04:51;;;;;;;2.63;1.98;;;;;;;8.03;62.63;100537.34;5025980;28;20022;-55
2023/12/04 11:07:19;;;;;;;2.20;1.83;;;;;;;8.03;62.53;100532.03;5027436;28;20033;-55
2023/12/04 11:09:48;;;;;;;1.95;1.77;;;;;;;8.03;62.58;100522.31;5026269;28;20490;-55
2023/12/04 11:12:16;;;;;;;2.90;2.10;;;;;;;8.04;62.64;100520.50;5029243;28;20032;-55
2023/12/04 11:14:46;;;;;;;2.10;1.85;;;;;;;8.05;62.58;100522.19;5029397;28;20384;-55
2023/12/04 11:17:14;;;;;;;2.10;1.90;;;;;;;8.04;62.56;100509.91;5030054;28;20029;-55
2023/12/04 11:19:49;;;;;;;2.50;1.60;;;;;;;8.05;62.72;100514.22;5032927;28;20116;-55
2023/12/04 11:22:20;;;;;;;2.10;1.52;;;;;;;8.05;62.60;100505.44;5029723;28;20461;-55
2023/12/04 11:24:47;;;;;;;1.65;1.55;;;;;;;8.05;62.56;100508.94;5030538;28;20452;-55
2023/12/04 11:27:13;;;;;;;2.85;1.65;;;;;;;8.05;62.54;100513.38;5028010;28;20044;-55